Aviation Digital Data Service (ADDS)

Output produced by METARs form (0347 UTC 26 June 2019)
found at http://www.aviationweather.gov/metar/data/
 
METAR text: WMKA 260300Z VRB02KT 9000 FEW020 SCT140 BKN280 30/27 Q1011
Conditions at: WMKA (S ABDUL HALIM , MY) observed 0300 UTC 26 June 2019
Temperature: 30.0°C (86°F)
Dewpoint: 27.0°C (81°F) [RH = 84%]
Pressure (altimeter): 29.85 inches Hg (1011.0 mb)
Winds: variable direction winds at 2 MPH (2 knots; 1.0 m/s)
Visibility: 6 miles ( 9 km)
Ceiling: 28000 feet AGL
Clouds: few clouds at 2000 feet AGL
scattered clouds at 14000 feet AGL
broken clouds at 28000 feet AGL
Weather: no significant weather observed at this time

METAR text: WMKA 260200Z 00000KT 9000 FEW020 SCT140 BKN280 28/26 Q1011
Conditions at: WMKA (S ABDUL HALIM , MY) observed 0200 UTC 26 June 2019
Temperature: 28.0°C (82°F)
Dewpoint: 26.0°C (79°F) [RH = 89%]
Pressure (altimeter): 29.85 inches Hg (1011.0 mb)
Winds: calm
Visibility: 6 miles ( 9 km)
Ceiling: 28000 feet AGL
Clouds: few clouds at 2000 feet AGL
scattered clouds at 14000 feet AGL
broken clouds at 28000 feet AGL
Weather: no significant weather observed at this time

METAR text: WMKA 260100Z 00000KT 8000 FEW020 SCT140 BKN280 26/25 Q1011
Conditions at: WMKA (S ABDUL HALIM , MY) observed 0100 UTC 26 June 2019
Temperature: 26.0°C (79°F)
Dewpoint: 25.0°C (77°F) [RH = 94%]
Pressure (altimeter): 29.85 inches Hg (1011.0 mb)
Winds: calm
Visibility: 5 miles ( 8 km)
Ceiling: 28000 feet AGL
Clouds: few clouds at 2000 feet AGL
scattered clouds at 14000 feet AGL
broken clouds at 28000 feet AGL
Weather: no significant weather observed at this time

METAR text: WMKA 260000Z 00000KT 7000 FEW012 SCT140 BKN280 26/25 Q1010
Conditions at: WMKA (S ABDUL HALIM , MY) observed 0000 UTC 26 June 2019
Temperature: 26.0°C (79°F)
Dewpoint: 25.0°C (77°F) [RH = 94%]
Pressure (altimeter): 29.82 inches Hg (1010.0 mb)
Winds: calm
Visibility: 4 miles ( 7 km)
Ceiling: 28000 feet AGL
Clouds: few clouds at 1200 feet AGL
scattered clouds at 14000 feet AGL
broken clouds at 28000 feet AGL
Weather: no significant weather observed at this time

METAR text: WMKA 252300Z VRB02KT 6000 FEW020 SCT140 BKN270 25/25 Q1010
Conditions at: WMKA (S ABDUL HALIM , MY) observed 2300 UTC 25 June 2019
Temperature: 25.0°C (77°F)
Dewpoint: 25.0°C (77°F) [RH = 100%]
Pressure (altimeter): 29.82 inches Hg (1010.0 mb)
Winds: variable direction winds at 2 MPH (2 knots; 1.0 m/s)
Visibility: 4 miles ( 6 km)
Ceiling: 27000 feet AGL
Clouds: few clouds at 2000 feet AGL
scattered clouds at 14000 feet AGL
broken clouds at 27000 feet AGL
Weather: no significant weather observed at this time

METAR text: WMKA 252200Z 00000KT 9999 FEW030 SCT140 BKN270 26/25 Q1009
Conditions at: WMKA (S ABDUL HALIM , MY) observed 2200 UTC 25 June 2019
Temperature: 26.0°C (79°F)
Dewpoint: 25.0°C (77°F) [RH = 94%]
Pressure (altimeter): 29.79 inches Hg (1009.0 mb)
Winds: calm
Visibility: 6 or more miles (10+ km)
Ceiling: 27000 feet AGL
Clouds: few clouds at 3000 feet AGL
scattered clouds at 14000 feet AGL
broken clouds at 27000 feet AGL
Weather: no significant weather observed at this time

METAR text: WMKA 252100Z VRB03KT 9999 FEW025 SCT140 BKN270 26/25 Q1009
Conditions at: WMKA (S ABDUL HALIM , MY) observed 2100 UTC 25 June 2019
Temperature: 26.0°C (79°F)
Dewpoint: 25.0°C (77°F) [RH = 94%]
Pressure (altimeter): 29.79 inches Hg (1009.0 mb)
Winds: variable direction winds at 3 MPH (3 knots; 1.5 m/s)
Visibility: 6 or more miles (10+ km)
Ceiling: 27000 feet AGL
Clouds: few clouds at 2500 feet AGL
scattered clouds at 14000 feet AGL
broken clouds at 27000 feet AGL
Weather: no significant weather observed at this time

METAR text: WMKA 252000Z VRB02KT 9999 FEW030 SCT140 BKN270 26/25 Q1009
Conditions at: WMKA (S ABDUL HALIM , MY) observed 2000 UTC 25 June 2019
Temperature: 26.0°C (79°F)
Dewpoint: 25.0°C (77°F) [RH = 94%]
Pressure (altimeter): 29.79 inches Hg (1009.0 mb)
Winds: variable direction winds at 2 MPH (2 knots; 1.0 m/s)
Visibility: 6 or more miles (10+ km)
Ceiling: 27000 feet AGL
Clouds: few clouds at 3000 feet AGL
scattered clouds at 14000 feet AGL
broken clouds at 27000 feet AGL
Weather: no significant weather observed at this time

METAR text: WMKA 251900Z VRB02KT 9999 FEW030 SCT140 BKN270 26/25 Q1010
Conditions at: WMKA (S ABDUL HALIM , MY) observed 1900 UTC 25 June 2019
Temperature: 26.0°C (79°F)
Dewpoint: 25.0°C (77°F) [RH = 94%]
Pressure (altimeter): 29.82 inches Hg (1010.0 mb)
Winds: variable direction winds at 2 MPH (2 knots; 1.0 m/s)
Visibility: 6 or more miles (10+ km)
Ceiling: 27000 feet AGL
Clouds: few clouds at 3000 feet AGL
scattered clouds at 14000 feet AGL
broken clouds at 27000 feet AGL
Weather: no significant weather observed at this time

METAR text: WMKA 251800Z 00000KT 9999 FEW028 SCT140 BKN270 26/25 Q1010
Conditions at: WMKA (S ABDUL HALIM , MY) observed 1800 UTC 25 June 2019
Temperature: 26.0°C (79°F)
Dewpoint: 25.0°C (77°F) [RH = 94%]
Pressure (altimeter): 29.82 inches Hg (1010.0 mb)
Winds: calm
Visibility: 6 or more miles (10+ km)
Ceiling: 27000 feet AGL
Clouds: few clouds at 2800 feet AGL
scattered clouds at 14000 feet AGL
broken clouds at 27000 feet AGL
Weather: no significant weather observed at this time

METAR text: WMKA 251700Z 00000KT 9999 FEW028 SCT140 BKN270 26/25 Q1011
Conditions at: WMKA (S ABDUL HALIM , MY) observed 1700 UTC 25 June 2019
Temperature: 26.0°C (79°F)
Dewpoint: 25.0°C (77°F) [RH = 94%]
Pressure (altimeter): 29.85 inches Hg (1011.0 mb)
Winds: calm
Visibility: 6 or more miles (10+ km)
Ceiling: 27000 feet AGL
Clouds: few clouds at 2800 feet AGL
scattered clouds at 14000 feet AGL
broken clouds at 27000 feet AGL
Weather: no significant weather observed at this time

METAR text: WMKA 251600Z VRB02KT 9999 FEW028 SCT140 BKN270 26/25 Q1011
Conditions at: WMKA (S ABDUL HALIM , MY) observed 1600 UTC 25 June 2019
Temperature: 26.0°C (79°F)
Dewpoint: 25.0°C (77°F) [RH = 94%]
Pressure (altimeter): 29.85 inches Hg (1011.0 mb)
Winds: variable direction winds at 2 MPH (2 knots; 1.0 m/s)
Visibility: 6 or more miles (10+ km)
Ceiling: 27000 feet AGL
Clouds: few clouds at 2800 feet AGL
scattered clouds at 14000 feet AGL
broken clouds at 27000 feet AGL
Weather: no significant weather observed at this time

METAR text: WMKA 251500Z VRB01KT 9999 FEW028 SCT140 BKN270 26/25 Q1011
Conditions at: WMKA (S ABDUL HALIM , MY) observed 1500 UTC 25 June 2019
Temperature: 26.0°C (79°F)
Dewpoint: 25.0°C (77°F) [RH = 94%]
Pressure (altimeter): 29.85 inches Hg (1011.0 mb)
Winds: variable direction winds at 1 MPH (1 knots; 0.5 m/s)
Visibility: 6 or more miles (10+ km)
Ceiling: 27000 feet AGL
Clouds: few clouds at 2800 feet AGL
scattered clouds at 14000 feet AGL
broken clouds at 27000 feet AGL
Weather: no significant weather observed at this time

METAR text: WMKA 251400Z 00000KT 9999 FEW028 SCT140 BKN270 26/25 Q1010 RERA
Conditions at: WMKA (S ABDUL HALIM , MY) observed 1400 UTC 25 June 2019
Temperature: 26.0°C (79°F)
Dewpoint: 25.0°C (77°F) [RH = 94%]
Pressure (altimeter): 29.82 inches Hg (1010.0 mb)
Winds: calm
Visibility: 6 or more miles (10+ km)
Ceiling: 27000 feet AGL
Clouds: few clouds at 2800 feet AGL
scattered clouds at 14000 feet AGL
broken clouds at 27000 feet AGL
Weather: no significant weather observed at this time

METAR text: WMKA 251300Z VRB01KT 9000 -RA FEW012 SCT026 BKN260 27/25 Q1010
Conditions at: WMKA (S ABDUL HALIM , MY) observed 1300 UTC 25 June 2019
Temperature: 27.0°C (81°F)
Dewpoint: 25.0°C (77°F) [RH = 89%]
Pressure (altimeter): 29.82 inches Hg (1010.0 mb)
Winds: variable direction winds at 1 MPH (1 knots; 0.5 m/s)
Visibility: 6 miles ( 9 km)
Ceiling: 26000 feet AGL
Clouds: few clouds at 1200 feet AGL
scattered clouds at 2600 feet AGL
broken clouds at 26000 feet AGL
Weather: -RA  (light rain)

METAR text: WMKA 251200Z VRB02KT 9999 -RA SCT026 SCT130 BKN260 27/25 Q1010
Conditions at: WMKA (S ABDUL HALIM , MY) observed 1200 UTC 25 June 2019
Temperature: 27.0°C (81°F)
Dewpoint: 25.0°C (77°F) [RH = 89%]
Pressure (altimeter): 29.82 inches Hg (1010.0 mb)
Winds: variable direction winds at 2 MPH (2 knots; 1.0 m/s)
Visibility: 6 or more miles (10+ km)
Ceiling: 26000 feet AGL
Clouds: scattered clouds at 2600 feet AGL
scattered clouds at 13000 feet AGL
broken clouds at 26000 feet AGL
Weather: -RA  (light rain)

METAR text: WMKA 251100Z 00000KT 9999 -RA FEW017CB SCT028 BKN260 27/25 Q1009 RETSRA
Conditions at: WMKA (S ABDUL HALIM , MY) observed 1100 UTC 25 June 2019
Temperature: 27.0°C (81°F)
Dewpoint: 25.0°C (77°F) [RH = 89%]
Pressure (altimeter): 29.79 inches Hg (1009.0 mb)
Winds: calm
Visibility: 6 or more miles (10+ km)
Ceiling: 26000 feet AGL
Clouds: few clouds at 1700 feet AGL
scattered clouds at 2800 feet AGL
broken clouds at 26000 feet AGL
Weather: -RA  (light rain)

METAR text: WMKA 251000Z 25009KT 190V290 9000 -TSRA FEW017CB SCT026 BKN260 27/24 Q1008
Conditions at: WMKA (S ABDUL HALIM , MY) observed 1000 UTC 25 June 2019
Temperature: 27.0°C (81°F)
Dewpoint: 24.0°C (75°F) [RH = 84%]
Pressure (altimeter): 29.76 inches Hg (1008.0 mb)
Winds: from the WSW (250 degrees) at 10 MPH (9 knots; 4.6 m/s)
Visibility: 6 miles ( 9 km)
Ceiling: 26000 feet AGL
Clouds: few clouds at 1700 feet AGL
scattered clouds at 2600 feet AGL
broken clouds at 26000 feet AGL
Weather: -TSRA  (light rain associated with thunderstorm(s))

METAR text: WMKA 250900Z 23008G21KT 150V300 8000 -TSRA FEW017CB SCT026 BKN260 29/26 Q1008 RERA
Conditions at: WMKA (S ABDUL HALIM , MY) observed 0900 UTC 25 June 2019
Temperature: 29.0°C (84°F)
Dewpoint: 26.0°C (79°F) [RH = 84%]
Pressure (altimeter): 29.76 inches Hg (1008.0 mb)
Winds: from the SW (230 degrees) at 9 MPH (8 knots; 4.1 m/s)
gusting to 24 MPH (21 knots; 10.8 m/s)
Visibility: 5 miles ( 8 km)
Ceiling: 26000 feet AGL
Clouds: few clouds at 1700 feet AGL
scattered clouds at 2600 feet AGL
broken clouds at 26000 feet AGL
Weather: -TSRA  (light rain associated with thunderstorm(s))

METAR text: WMKA 250800Z 17009KT 130V260 7000 -TSRA FEW017CB SCT020 BKN260 28/27 Q1008
Conditions at: WMKA (S ABDUL HALIM , MY) observed 0800 UTC 25 June 2019
Temperature: 28.0°C (82°F)
Dewpoint: 27.0°C (81°F) [RH = 94%]
Pressure (altimeter): 29.76 inches Hg (1008.0 mb)
Winds: from the S (170 degrees) at 10 MPH (9 knots; 4.6 m/s)
Visibility: 4 miles ( 7 km)
Ceiling: 26000 feet AGL
Clouds: few clouds at 1700 feet AGL
scattered clouds at 2000 feet AGL
broken clouds at 26000 feet AGL
Weather: -TSRA  (light rain associated with thunderstorm(s))

METAR text: WMKA 250700Z 24009KT 140V300 9999 TS FEW017CB SCT020 BKN280 31/27 Q1008
Conditions at: WMKA (S ABDUL HALIM , MY) observed 0700 UTC 25 June 2019
Temperature: 31.0°C (88°F)
Dewpoint: 27.0°C (81°F) [RH = 79%]
Pressure (altimeter): 29.76 inches Hg (1008.0 mb)
Winds: from the WSW (240 degrees) at 10 MPH (9 knots; 4.6 m/s)
Visibility: 6 or more miles (10+ km)
Ceiling: 28000 feet AGL
Clouds: few clouds at 1700 feet AGL
scattered clouds at 2000 feet AGL
broken clouds at 28000 feet AGL
Weather: TS  (thunderstorm)

METAR text: WMKA 250600Z 25008KT 190V280 9999 TS FEW017CB SCT020 BKN280 32/28 Q1009
Conditions at: WMKA (S ABDUL HALIM , MY) observed 0600 UTC 25 June 2019
Temperature: 32.0°C (90°F)
Dewpoint: 28.0°C (82°F) [RH = 80%]
Pressure (altimeter): 29.79 inches Hg (1009.0 mb)
Winds: from the WSW (250 degrees) at 9 MPH (8 knots; 4.1 m/s)
Visibility: 6 or more miles (10+ km)
Ceiling: 28000 feet AGL
Clouds: few clouds at 1700 feet AGL
scattered clouds at 2000 feet AGL
broken clouds at 28000 feet AGL
Weather: TS  (thunderstorm)

METAR text: WMKA 250500Z VRB06KT 9999 SCT020 SCT140 BKN280 32/28 Q1010
Conditions at: WMKA (S ABDUL HALIM , MY) observed 0500 UTC 25 June 2019
Temperature: 32.0°C (90°F)
Dewpoint: 28.0°C (82°F) [RH = 80%]
Pressure (altimeter): 29.82 inches Hg (1010.0 mb)
Winds: variable direction winds at 7 MPH (6 knots; 3.1 m/s)
Visibility: 6 or more miles (10+ km)
Ceiling: 28000 feet AGL
Clouds: scattered clouds at 2000 feet AGL
scattered clouds at 14000 feet AGL
broken clouds at 28000 feet AGL
Weather: no significant weather observed at this time

METAR text: WMKA 250400Z VRB03KT 9999 FEW020 SCT140 BKN280 31/27 Q1010
Conditions at: WMKA (S ABDUL HALIM , MY) observed 0400 UTC 25 June 2019
Temperature: 31.0°C (88°F)
Dewpoint: 27.0°C (81°F) [RH = 79%]
Pressure (altimeter): 29.82 inches Hg (1010.0 mb)
Winds: variable direction winds at 3 MPH (3 knots; 1.5 m/s)
Visibility: 6 or more miles (10+ km)
Ceiling: 28000 feet AGL
Clouds: few clouds at 2000 feet AGL
scattered clouds at 14000 feet AGL
broken clouds at 28000 feet AGL
Weather: no significant weather observed at this time

METAR text: WMKA 250300Z VRB03KT 9999 FEW020 SCT140 BKN280 31/27 Q1011
Conditions at: WMKA (S ABDUL HALIM , MY) observed 0300 UTC 25 June 2019
Temperature: 31.0°C (88°F)
Dewpoint: 27.0°C (81°F) [RH = 79%]
Pressure (altimeter): 29.85 inches Hg (1011.0 mb)
Winds: variable direction winds at 3 MPH (3 knots; 1.5 m/s)
Visibility: 6 or more miles (10+ km)
Ceiling: 28000 feet AGL
Clouds: few clouds at 2000 feet AGL
scattered clouds at 14000 feet AGL
broken clouds at 28000 feet AGL
Weather: no significant weather observed at this time

METAR text: WMKA 250200Z VRB01KT 9999 FEW017CB SCT140 BKN280 28/26 Q1010
Conditions at: WMKA (S ABDUL HALIM , MY) observed 0200 UTC 25 June 2019
Temperature: 28.0°C (82°F)
Dewpoint: 26.0°C (79°F) [RH = 89%]
Pressure (altimeter): 29.82 inches Hg (1010.0 mb)
Winds: variable direction winds at 1 MPH (1 knots; 0.5 m/s)
Visibility: 6 or more miles (10+ km)
Ceiling: 28000 feet AGL
Clouds: few clouds at 1700 feet AGL
scattered clouds at 14000 feet AGL
broken clouds at 28000 feet AGL
Weather: no significant weather observed at this time

METAR text: WMKA 250100Z VRB03KT 9999 FEW017CB SCT140 BKN270 26/25 Q1011 RETSRA
Conditions at: WMKA (S ABDUL HALIM , MY) observed 0100 UTC 25 June 2019
Temperature: 26.0°C (79°F)
Dewpoint: 25.0°C (77°F) [RH = 94%]
Pressure (altimeter): 29.85 inches Hg (1011.0 mb)
Winds: variable direction winds at 3 MPH (3 knots; 1.5 m/s)
Visibility: 6 or more miles (10+ km)
Ceiling: 27000 feet AGL
Clouds: few clouds at 1700 feet AGL
scattered clouds at 14000 feet AGL
broken clouds at 27000 feet AGL
Weather: no significant weather observed at this time

METAR text: WMKA 250000Z VRB03KT 9000 -TSRA FEW010 FEW017CB SCT026 OVC260 26/25 Q1010
Conditions at: WMKA (S ABDUL HALIM , MY) observed 0000 UTC 25 June 2019
Temperature: 26.0°C (79°F)
Dewpoint: 25.0°C (77°F) [RH = 94%]
Pressure (altimeter): 29.82 inches Hg (1010.0 mb)
Winds: variable direction winds at 3 MPH (3 knots; 1.5 m/s)
Visibility: 6 miles ( 9 km)
Ceiling: 26000 feet AGL
Clouds: few clouds at 1000 feet AGL
few clouds at 1700 feet AGL
scattered clouds at 2600 feet AGL
overcast cloud deck at 26000 feet AGL
Weather: -TSRA  (light rain associated with thunderstorm(s))

METAR text: WMKA 242300Z VRB02KT 9000 -TSRA FEW010 FEW016CB SCT028 OVC260 26/25 Q1009
Conditions at: WMKA (S ABDUL HALIM , MY) observed 2300 UTC 24 June 2019
Temperature: 26.0°C (79°F)
Dewpoint: 25.0°C (77°F) [RH = 94%]
Pressure (altimeter): 29.79 inches Hg (1009.0 mb)
Winds: variable direction winds at 2 MPH (2 knots; 1.0 m/s)
Visibility: 6 miles ( 9 km)
Ceiling: 26000 feet AGL
Clouds: few clouds at 1000 feet AGL
few clouds at 1600 feet AGL
scattered clouds at 2800 feet AGL
overcast cloud deck at 26000 feet AGL
Weather: -TSRA  (light rain associated with thunderstorm(s))

METAR text: WMKA 242200Z VRB02KT 6000 -RA FEW008 FEW016CB SCT026 OVC260 26/25 Q1009
Conditions at: WMKA (S ABDUL HALIM , MY) observed 2200 UTC 24 June 2019
Temperature: 26.0°C (79°F)
Dewpoint: 25.0°C (77°F) [RH = 94%]
Pressure (altimeter): 29.79 inches Hg (1009.0 mb)
Winds: variable direction winds at 2 MPH (2 knots; 1.0 m/s)
Visibility: 4 miles ( 6 km)
Ceiling: 26000 feet AGL
Clouds: few clouds at 800 feet AGL
few clouds at 1600 feet AGL
scattered clouds at 2600 feet AGL
overcast cloud deck at 26000 feet AGL
Weather: -RA  (light rain)

METAR text: WMKA 242100Z 00000KT 9999 FEW017CB SCT140 BKN280 28/27 Q1008
Conditions at: WMKA (S ABDUL HALIM , MY) observed 2100 UTC 24 June 2019
Temperature: 28.0°C (82°F)
Dewpoint: 27.0°C (81°F) [RH = 94%]
Pressure (altimeter): 29.76 inches Hg (1008.0 mb)
Winds: calm
Visibility: 6 or more miles (10+ km)
Ceiling: 28000 feet AGL
Clouds: few clouds at 1700 feet AGL
scattered clouds at 14000 feet AGL
broken clouds at 28000 feet AGL
Weather: no significant weather observed at this time

METAR text: WMKA 242000Z 00000KT 9999 FEW030 SCT140 BKN280 28/27 Q1008
Conditions at: WMKA (S ABDUL HALIM , MY) observed 2000 UTC 24 June 2019
Temperature: 28.0°C (82°F)
Dewpoint: 27.0°C (81°F) [RH = 94%]
Pressure (altimeter): 29.76 inches Hg (1008.0 mb)
Winds: calm
Visibility: 6 or more miles (10+ km)
Ceiling: 28000 feet AGL
Clouds: few clouds at 3000 feet AGL
scattered clouds at 14000 feet AGL
broken clouds at 28000 feet AGL
Weather: no significant weather observed at this time

METAR text: WMKA 241900Z VRB01KT 9999 FEW030 SCT140 BKN280 28/27 Q1009
Conditions at: WMKA (S ABDUL HALIM , MY) observed 1900 UTC 24 June 2019
Temperature: 28.0°C (82°F)
Dewpoint: 27.0°C (81°F) [RH = 94%]
Pressure (altimeter): 29.79 inches Hg (1009.0 mb)
Winds: variable direction winds at 1 MPH (1 knots; 0.5 m/s)
Visibility: 6 or more miles (10+ km)
Ceiling: 28000 feet AGL
Clouds: few clouds at 3000 feet AGL
scattered clouds at 14000 feet AGL
broken clouds at 28000 feet AGL
Weather: no significant weather observed at this time

METAR text: WMKA 241800Z 00000KT 9999 FEW030 SCT140 BKN280 28/27 Q1009
Conditions at: WMKA (S ABDUL HALIM , MY) observed 1800 UTC 24 June 2019
Temperature: 28.0°C (82°F)
Dewpoint: 27.0°C (81°F) [RH = 94%]
Pressure (altimeter): 29.79 inches Hg (1009.0 mb)
Winds: calm
Visibility: 6 or more miles (10+ km)
Ceiling: 28000 feet AGL
Clouds: few clouds at 3000 feet AGL
scattered clouds at 14000 feet AGL
broken clouds at 28000 feet AGL
Weather: no significant weather observed at this time

METAR text: WMKA 241700Z VRB02KT 9999 FEW030 SCT140 BKN280 29/27 Q1009
Conditions at: WMKA (S ABDUL HALIM , MY) observed 1700 UTC 24 June 2019
Temperature: 29.0°C (84°F)
Dewpoint: 27.0°C (81°F) [RH = 89%]
Pressure (altimeter): 29.79 inches Hg (1009.0 mb)
Winds: variable direction winds at 2 MPH (2 knots; 1.0 m/s)
Visibility: 6 or more miles (10+ km)
Ceiling: 28000 feet AGL
Clouds: few clouds at 3000 feet AGL
scattered clouds at 14000 feet AGL
broken clouds at 28000 feet AGL
Weather: no significant weather observed at this time

METAR text: WMKA 241600Z 00000KT 9999 FEW030 SCT140 BKN280 29/27 Q1009
Conditions at: WMKA (S ABDUL HALIM , MY) observed 1600 UTC 24 June 2019
Temperature: 29.0°C (84°F)
Dewpoint: 27.0°C (81°F) [RH = 89%]
Pressure (altimeter): 29.79 inches Hg (1009.0 mb)
Winds: calm
Visibility: 6 or more miles (10+ km)
Ceiling: 28000 feet AGL
Clouds: few clouds at 3000 feet AGL
scattered clouds at 14000 feet AGL
broken clouds at 28000 feet AGL
Weather: no significant weather observed at this time

Forecast for: WMKA (S ABDUL HALIM , MY)
Text: TAF WMKA 252300Z 2600/2700 VRB03KT 9999 FEW020
Forecast period: 0000 to 0400 UTC 26 June 2019
Forecast type: FROM: standard forecast or significant change
Winds: variable direction winds at 3 MPH (3 knots; 1.5 m/s)
Visibility: 6 or more miles 10+ km)
Ceiling: at least 12,000 feet AGL
Clouds: few clouds at 2000 feet AGL
Weather: no significant weather forecast for this period
Text: BECMG 2604/2606 25008KT
Forecast period: 0400 to 1200 UTC 26 June 2019
Forecast type: BECOMING: Conditions expected to become as follows by 0600 UTC 26 June 2019
Winds: from the WSW (250 degrees) at 9 MPH (8 knots; 4.1 m/s)
Visibility: 6 or more miles 10+ km)
Ceiling: at least 12,000 feet AGL
Clouds: few clouds at 2000 feet AGL
Weather: no significant weather forecast for this period
Text: TEMPO 2605/2609 23008G20KT 5000 TSRA FEW010 FEW017CB
Forecast period: 0500 to 0900 UTC 26 June 2019
Forecast type: TEMPORARY: The following changes expected for less than half the time period
Winds: from the SW (230 degrees) at 9 MPH (8 knots; 4.1 m/s)
gusting to 23 MPH (20 knots; 10.3 m/s)
Visibility: 3 miles (5 km)
Ceiling: at least 12,000 feet AGL
Clouds: few clouds at 1000 feet AGL
few clouds at 1700 feet AGL
Weather: TSRA  (rain associated with thunderstorm(s))
Text: BECMG 2612/2614 VRB03KT FEW030
Forecast period: 1200 UTC 26 June 2019 to 0000 UTC 27 June 2019
Forecast type: BECOMING: Conditions expected to become as follows by 1400 UTC 26 June 2019
Winds: variable direction winds at 3 MPH (3 knots; 1.5 m/s)
Visibility: 6 or more miles 10+ km)
Ceiling: at least 12,000 feet AGL
Clouds: few clouds at 3000 feet AGL
Weather: no significant weather forecast for this period